createdAt,value
2022-08-26T00:02:12.759Z,8.07
2022-08-26T00:04:41.980Z,7.10
2022-08-26T00:07:10.204Z,7.67
2022-08-26T00:09:39.010Z,8.10
2022-08-26T00:12:08.326Z,6.83
2022-08-26T00:14:36.722Z,7.90
2022-08-26T00:17:04.545Z,8.10
2022-08-26T00:19:32.752Z,7.77
2022-08-26T00:22:02.048Z,8.07
2022-08-26T00:24:29.736Z,7.87
2022-08-26T00:26:58.888Z,7.43
2022-08-26T00:29:26.634Z,7.00
2022-08-26T00:31:54.333Z,7.27
2022-08-26T00:34:21.924Z,7.17
2022-08-26T00:36:51.888Z,7.73
2022-08-26T00:39:21.576Z,7.17
2022-08-26T00:41:50.490Z,8.80
2022-08-26T00:44:18.309Z,7.70
2022-08-26T00:46:48.226Z,8.37
2022-08-26T00:49:19.176Z,7.47
2022-08-26T00:51:49.717Z,7.20
2022-08-26T00:54:18.430Z,8.30
2022-08-26T00:56:53.836Z,8.10
2022-08-26T00:59:22.045Z,7.27
2022-08-26T01:01:50.123Z,7.60
2022-08-26T01:04:20.014Z,8.17
2022-08-26T01:06:49.927Z,7.30
2022-08-26T01:09:18.034Z,7.30
2022-08-26T01:11:47.532Z,8.43
2022-08-26T01:14:15.541Z,7.77
2022-08-26T01:16:44.191Z,7.93
2022-08-26T01:19:23.049Z,8.50
2022-08-26T01:21:56.736Z,6.80
2022-08-26T01:24:27.575Z,7.70
2022-08-26T01:27:00.539Z,7.73
2022-08-26T01:29:29.906Z,8.47
2022-08-26T01:31:58.767Z,7.97
2022-08-26T01:34:29.347Z,9.37
2022-08-26T01:37:01.036Z,6.97
2022-08-26T01:39:30.250Z,7.90
2022-08-26T01:41:58.510Z,8.30
2022-08-26T01:44:32.822Z,8.83
2022-08-26T01:47:01.977Z,7.37
2022-08-26T01:49:33.264Z,7.60
2022-08-26T01:52:05.094Z,8.50
2022-08-26T01:54:35.307Z,8.33
2022-08-26T01:57:03.777Z,7.93
2022-08-26T01:59:31.523Z,7.97
2022-08-26T02:01:59.292Z,8.67
2022-08-26T02:04:28.755Z,7.90
2022-08-26T02:06:57.502Z,9.10
2022-08-26T02:09:27.288Z,8.70
2022-08-26T02:11:56.416Z,9.60
2022-08-26T02:14:26.842Z,8.27
2022-08-26T02:16:55.922Z,9.20
2022-08-26T02:19:27.692Z,8.80
2022-08-26T02:21:55.312Z,9.23
2022-08-26T02:24:27.461Z,8.40
2022-08-26T02:26:57.544Z,8.30
2022-08-26T02:29:28.007Z,8.20
2022-08-26T02:31:56.384Z,8.50
2022-08-26T02:34:28.372Z,8.27
2022-08-26T02:36:59.729Z,8.57
2022-08-26T02:39:27.511Z,8.50
2022-08-26T02:41:57.539Z,8.63
2022-08-26T02:44:25.754Z,8.67
2022-08-26T02:46:54.148Z,7.70
2022-08-26T02:49:22.286Z,8.77
2022-08-26T02:51:49.958Z,8.07
2022-08-26T02:54:19.883Z,10.43
2022-08-26T02:56:48.304Z,9.07
2022-08-26T02:59:17.905Z,8.40
2022-08-26T03:01:47.299Z,9.53
2022-08-26T03:04:15.287Z,10.40
2022-08-26T03:06:43.254Z,7.70
2022-08-26T03:09:18.621Z,9.33
2022-08-26T03:11:47.275Z,9.20
2022-08-26T03:14:15.140Z,10.10
2022-08-26T03:16:44.953Z,8.77
2022-08-26T03:19:17.645Z,9.80
2022-08-26T03:21:47.436Z,9.70
2022-08-26T03:24:17.137Z,10.37
2022-08-26T03:26:52.105Z,10.17
2022-08-26T03:29:38.294Z,9.20
2022-08-26T03:32:08.169Z,10.00
2022-08-26T03:34:36.187Z,9.77
2022-08-26T03:37:04.244Z,9.27
2022-08-26T03:39:31.868Z,9.70
2022-08-26T03:42:00.480Z,9.10
2022-08-26T03:44:28.091Z,10.13
2022-08-26T03:46:55.815Z,9.30
2022-08-26T03:49:24.925Z,9.97
2022-08-26T03:51:56.549Z,10.53
2022-08-26T03:54:24.458Z,10.10
2022-08-26T03:56:52.025Z,10.10
2022-08-26T03:59:20.980Z,10.57
2022-08-26T04:01:48.642Z,10.60
2022-08-26T04:04:16.982Z,10.43
2022-08-26T04:06:45.990Z,10.27
2022-08-26T04:09:15.314Z,10.67
2022-08-26T04:11:44.399Z,10.17
2022-08-26T04:14:17.500Z,10.43
2022-08-26T04:16:48.001Z,10.97
2022-08-26T04:19:16.594Z,11.47
2022-08-26T04:21:46.192Z,10.63
2022-08-26T04:24:15.515Z,10.30
2022-08-26T04:26:44.178Z,10.27
2022-08-26T04:29:15.885Z,10.43
2022-08-26T04:31:43.524Z,9.73
2022-08-26T04:34:11.697Z,10.93
2022-08-26T04:36:43.071Z,10.13
2022-08-26T04:39:14.122Z,11.97
2022-08-26T04:41:41.692Z,10.70
2022-08-26T04:44:09.486Z,10.70
2022-08-26T04:46:39.804Z,10.63
2022-08-26T04:49:11.367Z,12.23
2022-08-26T04:51:39.576Z,13.43
2022-08-26T04:54:07.904Z,10.60
2022-08-26T04:56:39.444Z,10.33
2022-08-26T04:59:16.702Z,10.53
2022-08-26T05:01:46.320Z,11.93
2022-08-26T05:04:16.272Z,11.30
2022-08-26T05:06:46.604Z,12.10
2022-08-26T05:09:15.440Z,11.53
2022-08-26T05:11:45.576Z,10.73
2022-08-26T05:14:19.898Z,10.47
2022-08-26T05:16:48.042Z,10.87
2022-08-26T05:19:17.175Z,11.60
2022-08-26T05:21:47.247Z,10.77
2022-08-26T05:24:15.214Z,11.40
2022-08-26T05:26:44.857Z,10.70
2022-08-26T05:29:12.841Z,11.33
2022-08-26T05:31:40.525Z,11.50
2022-08-26T05:34:08.590Z,11.07
2022-08-26T05:36:37.124Z,11.00
2022-08-26T05:39:06.889Z,13.13
2022-08-26T05:41:36.469Z,10.93
2022-08-26T05:44:07.783Z,10.50
2022-08-26T05:46:37.259Z,10.90
2022-08-26T05:49:05.697Z,10.10
2022-08-26T05:51:35.057Z,11.43
2022-08-26T05:54:04.352Z,10.23
2022-08-26T05:56:32.571Z,10.60
2022-08-26T05:59:02.188Z,11.10
2022-08-26T06:01:31.162Z,10.30
2022-08-26T06:04:03.796Z,10.27
2022-08-26T06:06:33.648Z,11.20
2022-08-26T06:09:04.020Z,10.73
2022-08-26T06:11:32.539Z,10.80
2022-08-26T06:14:03.767Z,9.10
2022-08-26T06:16:34.541Z,11.70
2022-08-26T06:19:03.122Z,9.93
2022-08-26T06:21:32.521Z,11.03
2022-08-26T06:24:21.457Z,9.63
2022-08-26T06:26:57.082Z,10.30
2022-08-26T06:29:26.934Z,9.77
2022-08-26T06:31:58.038Z,10.00
2022-08-26T06:34:29.825Z,9.90
2022-08-26T06:36:59.564Z,10.00
2022-08-26T06:39:27.211Z,9.03
2022-08-26T06:41:58.852Z,8.30
2022-08-26T06:44:27.075Z,9.43
2022-08-26T06:46:55.996Z,10.10
2022-08-26T06:49:26.926Z,10.50
2022-08-26T06:51:56.626Z,11.10
2022-08-26T06:54:24.173Z,10.40
2022-08-26T06:56:52.436Z,10.63
2022-08-26T06:59:20.444Z,10.23
2022-08-26T07:01:48.166Z,9.33
2022-08-26T07:04:22.012Z,10.17
2022-08-26T07:06:52.867Z,9.77
2022-08-26T07:09:22.006Z,9.57
2022-08-26T07:11:51.300Z,9.23
2022-08-26T07:14:21.253Z,9.73
2022-08-26T07:16:49.814Z,9.47
2022-08-26T07:19:30.104Z,10.23
2022-08-26T07:21:59.909Z,9.60
2022-08-26T07:24:28.596Z,9.67
2022-08-26T07:27:00.243Z,11.60
2022-08-26T07:29:28.660Z,9.93
2022-08-26T07:31:56.734Z,9.10
2022-08-26T07:34:26.449Z,9.73
2022-08-26T07:36:54.077Z,9.30
2022-08-26T07:39:23.837Z,11.10
2022-08-26T07:41:51.699Z,9.70
2022-08-26T07:44:19.576Z,9.73
2022-08-26T07:46:53.144Z,9.67
2022-08-26T07:49:21.843Z,9.30
2022-08-26T07:51:51.722Z,8.80
2022-08-26T07:54:19.905Z,9.53
2022-08-26T07:56:48.207Z,10.30
2022-08-26T07:59:17.836Z,8.03
2022-08-26T08:01:46.426Z,9.83
2022-08-26T08:04:15.059Z,10.50
2022-08-26T08:06:43.985Z,9.23
2022-08-26T08:09:13.723Z,9.77
2022-08-26T08:11:43.292Z,8.73
2022-08-26T08:14:12.561Z,9.43
2022-08-26T08:16:46.060Z,9.47
2022-08-26T08:19:14.868Z,8.77
2022-08-26T08:21:43.019Z,8.00
2022-08-26T08:24:11.125Z,9.10
2022-08-26T08:26:40.355Z,9.20
2022-08-26T08:29:08.986Z,9.00
2022-08-26T08:34:25.893Z,9.10
2022-08-26T08:36:53.825Z,9.43
2022-08-26T08:39:22.240Z,9.53
2022-08-26T08:42:04.401Z,8.80
2022-08-26T08:44:32.239Z,9.27
2022-08-26T08:47:03.267Z,8.50
2022-08-26T08:49:30.951Z,8.83
2022-08-26T08:52:02.147Z,8.57
2022-08-26T08:54:32.032Z,8.10
2022-08-26T08:57:07.812Z,7.80
2022-08-26T08:59:38.538Z,9.50
2022-08-26T09:02:12.271Z,8.60
2022-08-26T09:04:59.163Z,9.37
2022-08-26T09:07:32.170Z,9.70
2022-08-26T09:10:03.081Z,8.70
2022-08-26T09:12:34.553Z,9.30
2022-08-26T09:15:04.175Z,9.13
2022-08-26T09:17:40.819Z,8.13
2022-08-26T09:20:15.436Z,8.40
2022-08-26T09:22:44.521Z,7.63
2022-08-26T09:25:14.074Z,7.93
2022-08-26T09:27:46.442Z,8.27
2022-08-26T09:30:26.444Z,8.77
2022-08-26T09:33:02.378Z,8.53
2022-08-26T09:35:32.083Z,8.53
2022-08-26T09:38:00.259Z,9.37
2022-08-26T09:40:34.516Z,8.97
2022-08-26T09:43:22.259Z,8.63
2022-08-26T09:45:58.380Z,8.40
2022-08-26T09:48:30.315Z,8.50
2022-08-26T09:51:01.011Z,8.43
2022-08-26T09:53:31.613Z,8.43
2022-08-26T09:56:17.489Z,8.77
2022-08-26T09:58:48.106Z,8.27
2022-08-26T10:01:17.601Z,8.43
2022-08-26T10:03:47.261Z,8.87
2022-08-26T10:06:26.581Z,7.80
2022-08-26T10:08:57.132Z,8.70
2022-08-26T10:11:38.317Z,8.30
2022-08-26T10:14:13.918Z,8.47
2022-08-26T10:16:48.622Z,9.07
2022-08-26T10:19:20.763Z,7.73
2022-08-26T10:21:52.233Z,8.60
2022-08-26T10:24:29.691Z,8.77
2022-08-26T10:27:02.431Z,9.03
2022-08-26T10:29:35.855Z,9.40
2022-08-26T10:32:07.241Z,8.80
2022-08-26T10:34:35.228Z,8.90
2022-08-26T10:37:15.718Z,8.10
2022-08-26T10:39:57.071Z,8.40
2022-08-26T10:42:28.826Z,8.20
2022-08-26T10:45:05.138Z,9.33
2022-08-26T10:47:37.168Z,8.63
2022-08-26T10:50:06.629Z,8.77
2022-08-26T10:52:52.287Z,8.60
2022-08-26T10:55:25.511Z,8.70
2022-08-26T10:57:58.372Z,7.90
2022-08-26T11:00:49.614Z,7.93
2022-08-26T11:03:34.346Z,8.40
2022-08-26T11:06:23.188Z,7.30
2022-08-26T11:08:52.652Z,9.63
2022-08-26T11:11:45.301Z,9.00
2022-08-26T11:14:45.942Z,8.30
2022-08-26T11:17:56.795Z,7.90
2022-08-26T11:20:36.640Z,7.80
2022-08-26T11:23:38.755Z,9.30
2022-08-26T11:26:36.329Z,8.90
2022-08-26T11:29:12.834Z,9.23
2022-08-26T11:31:55.259Z,9.60
2022-08-26T11:34:59.209Z,8.80
2022-08-26T11:37:33.348Z,8.70
2022-08-26T11:40:02.840Z,8.70
2022-08-26T11:42:36.293Z,7.67
2022-08-26T11:45:17.218Z,8.70
2022-08-26T11:47:46.573Z,8.37
2022-08-26T11:50:20.154Z,7.97
2022-08-26T11:52:56.112Z,8.97
2022-08-26T11:55:24.324Z,8.60
2022-08-26T11:57:54.614Z,8.03
2022-08-26T12:00:25.207Z,7.37
2022-08-26T12:02:54.618Z,7.73
2022-08-26T12:05:30.974Z,7.93
2022-08-26T12:08:07.244Z,7.43
2022-08-26T12:10:35.856Z,8.00
2022-08-26T12:13:06.161Z,6.87
2022-08-26T12:15:34.861Z,7.30
2022-08-26T12:18:20.533Z,7.40
2022-08-26T12:20:59.761Z,7.03
2022-08-26T12:23:36.666Z,7.00
2022-08-26T12:26:06.600Z,8.17
2022-08-26T12:28:34.557Z,7.83
2022-08-26T12:31:05.039Z,6.40
2022-08-26T12:33:35.910Z,7.40
2022-08-26T12:36:06.380Z,8.00
2022-08-26T12:38:36.762Z,7.27
2022-08-26T12:41:04.486Z,7.63
2022-08-26T12:43:41.480Z,7.00
2022-08-26T12:46:11.170Z,6.30
2022-08-26T12:48:42.580Z,8.10
2022-08-26T12:51:20.357Z,8.33
2022-08-26T12:53:47.967Z,9.30
2022-08-26T12:56:22.039Z,8.40
2022-08-26T12:59:02.565Z,8.20
2022-08-26T13:01:38.372Z,8.83
2022-08-26T13:04:06.910Z,8.10
2022-08-26T13:06:35.807Z,8.03
2022-08-26T13:09:06.559Z,7.97
2022-08-26T13:11:36.434Z,8.33
2022-08-26T13:14:06.783Z,9.10
2022-08-26T13:16:35.238Z,9.80
2022-08-26T13:19:05.132Z,7.83
2022-08-26T13:21:37.684Z,8.03
2022-08-26T13:24:08.817Z,9.70
2022-08-26T13:26:36.778Z,7.73
2022-08-26T13:29:09.591Z,8.67
2022-08-26T13:31:40.128Z,9.07
2022-08-26T13:34:08.863Z,8.70
2022-08-26T13:36:37.756Z,8.50
2022-08-26T13:39:06.327Z,9.23
2022-08-26T13:41:34.420Z,9.00
2022-08-26T13:44:01.951Z,9.50
2022-08-26T13:46:30.363Z,9.13
2022-08-26T13:48:58.520Z,8.63
2022-08-26T13:51:26.870Z,8.57
2022-08-26T13:53:57.724Z,9.07
2022-08-26T13:56:27.394Z,8.90
2022-08-26T13:58:55.146Z,8.73
2022-08-26T14:01:22.992Z,7.57
2022-08-26T14:03:50.609Z,8.50
2022-08-26T14:06:18.768Z,7.80
2022-08-26T14:08:46.933Z,7.80
2022-08-26T14:11:15.986Z,8.73
2022-08-26T14:13:43.592Z,7.80
2022-08-26T14:16:13.605Z,10.27
2022-08-26T14:18:45.203Z,10.50
2022-08-26T14:21:15.159Z,9.60
2022-08-26T14:23:42.669Z,9.87
2022-08-26T14:26:14.309Z,9.40
2022-08-26T14:28:57.929Z,10.70
2022-08-26T14:31:26.842Z,9.53
2022-08-26T14:33:54.948Z,9.33
2022-08-26T14:36:32.623Z,9.13
2022-08-26T14:39:02.566Z,9.30
2022-08-26T14:41:34.729Z,8.83
2022-08-26T14:44:06.093Z,8.80
2022-08-26T14:46:37.167Z,8.70
2022-08-26T14:49:08.504Z,9.77
2022-08-26T14:51:38.161Z,9.23
2022-08-26T14:54:14.752Z,9.17
2022-08-26T14:56:46.129Z,9.40
2022-08-26T14:59:16.487Z,8.37
2022-08-26T15:01:44.295Z,6.93
2022-08-26T15:04:12.076Z,7.50
2022-08-26T15:06:39.927Z,7.70
2022-08-26T15:09:07.562Z,7.30
2022-08-26T15:11:35.223Z,8.40
2022-08-26T15:14:03.127Z,7.50
2022-08-26T15:16:33.959Z,7.53
2022-08-26T15:19:04.203Z,6.77
2022-08-26T15:21:32.257Z,6.80
2022-08-26T15:24:01.035Z,6.57
2022-08-26T15:26:29.798Z,6.80
2022-08-26T15:29:02.991Z,6.23
2022-08-26T15:31:34.470Z,6.63
2022-08-26T15:34:04.841Z,5.97
2022-08-26T15:36:32.583Z,6.70
2022-08-26T15:39:01.300Z,6.40
2022-08-26T15:41:29.476Z,5.93
2022-08-26T15:43:57.914Z,6.53
2022-08-26T15:46:25.752Z,6.67
2022-08-26T15:48:55.372Z,5.43
2022-08-26T15:51:25.102Z,5.63
2022-08-26T15:53:55.308Z,5.43
2022-08-26T15:56:24.934Z,5.50
2022-08-26T15:58:54.967Z,4.80
2022-08-26T16:01:27.816Z,5.30
2022-08-26T16:03:57.418Z,5.40
2022-08-26T16:06:28.693Z,4.53
2022-08-26T16:08:57.499Z,4.93
2022-08-26T16:11:25.780Z,5.17
2022-08-26T16:13:53.532Z,5.00
2022-08-26T16:16:21.441Z,5.10
2022-08-26T16:18:49.559Z,5.43
2022-08-26T16:21:20.722Z,5.30
2022-08-26T16:23:48.849Z,5.40
2022-08-26T16:26:18.898Z,5.70
2022-08-26T16:28:47.332Z,5.60
2022-08-26T16:31:15.213Z,4.87
2022-08-26T16:33:42.951Z,4.50
2022-08-26T16:36:11.556Z,4.17
2022-08-26T16:38:41.199Z,3.60
2022-08-26T16:41:08.783Z,3.07
2022-08-26T16:43:36.947Z,3.30
2022-08-26T16:46:06.696Z,2.73
2022-08-26T16:48:34.922Z,3.00
2022-08-26T16:51:02.531Z,3.20
2022-08-26T16:53:30.156Z,2.93
2022-08-26T16:55:59.097Z,3.50
2022-08-26T16:58:26.633Z,3.20
2022-08-26T17:00:54.302Z,3.20
2022-08-26T17:03:22.046Z,3.07
2022-08-26T17:05:49.791Z,3.30
2022-08-26T17:08:27.449Z,3.87
2022-08-26T17:10:57.012Z,4.03
2022-08-26T17:13:35.380Z,3.60
2022-08-26T17:16:04.898Z,5.07
2022-08-26T17:18:32.765Z,5.53
2022-08-26T17:21:02.245Z,5.87
2022-08-26T17:23:29.880Z,6.77
2022-08-26T17:25:57.590Z,7.00
2022-08-26T17:28:26.629Z,6.60
2022-08-26T17:30:56.862Z,6.63
2022-08-26T17:33:25.306Z,6.27
2022-08-26T17:35:54.062Z,7.20
2022-08-26T17:38:22.438Z,6.93
2022-08-26T17:40:50.245Z,6.67
2022-08-26T17:43:18.200Z,7.07
2022-08-26T17:45:47.315Z,6.90
2022-08-26T17:48:15.006Z,6.77
2022-08-26T17:50:43.574Z,7.10
2022-08-26T17:53:19.189Z,10.73
2022-08-26T17:55:47.347Z,7.60
2022-08-26T17:58:15.790Z,7.63
2022-08-26T18:00:44.640Z,7.57
2022-08-26T18:03:14.023Z,6.67
2022-08-26T18:05:42.557Z,7.90
2022-08-26T18:08:10.504Z,8.37
2022-08-26T18:10:38.196Z,8.80
2022-08-26T18:13:05.888Z,8.33
2022-08-26T18:15:33.568Z,8.17
2022-08-26T18:18:01.457Z,9.80
2022-08-26T18:20:30.669Z,9.47
2022-08-26T18:22:58.578Z,8.53
2022-08-26T18:25:26.815Z,9.90
2022-08-26T18:27:54.617Z,10.53
2022-08-26T18:30:23.092Z,9.60
2022-08-26T18:33:05.845Z,9.17
2022-08-26T18:35:39.336Z,10.63
2022-08-26T18:38:11.525Z,9.50
2022-08-26T18:40:40.603Z,9.80
2022-08-26T18:43:08.666Z,9.30
2022-08-26T18:45:36.627Z,9.40
2022-08-26T18:48:05.513Z,9.77
2022-08-26T18:50:33.369Z,8.17
2022-08-26T18:53:03.362Z,9.27
2022-08-26T18:55:31.096Z,8.63
2022-08-26T18:57:58.730Z,6.23
2022-08-26T19:00:26.407Z,6.90
2022-08-26T19:02:55.313Z,6.23
2022-08-26T19:05:24.071Z,7.40
2022-08-26T19:07:52.107Z,7.97
2022-08-26T19:10:21.101Z,7.13
2022-08-26T19:12:51.783Z,7.10
2022-08-26T19:15:20.121Z,7.43
2022-08-26T19:17:48.095Z,7.80
2022-08-26T19:20:15.883Z,7.90
2022-08-26T19:22:43.516Z,7.17
2022-08-26T19:25:11.678Z,8.10
2022-08-26T19:27:41.046Z,7.40
2022-08-26T19:30:09.855Z,7.80
2022-08-26T19:32:37.448Z,8.23
2022-08-26T19:35:05.993Z,8.53
2022-08-26T19:37:33.582Z,9.03
2022-08-26T19:40:01.465Z,8.70
2022-08-26T19:42:29.739Z,9.93
2022-08-26T19:45:18.272Z,11.50
2022-08-26T19:47:53.481Z,11.47
2022-08-26T19:50:21.541Z,11.00
2022-08-26T19:52:49.307Z,11.43
2022-08-26T19:55:19.026Z,12.40
2022-08-26T19:57:46.664Z,9.17
2022-08-26T20:00:23.569Z,11.87
2022-08-26T20:02:51.821Z,11.40
2022-08-26T20:05:21.494Z,11.13
2022-08-26T20:07:49.741Z,10.23
2022-08-26T20:10:21.016Z,9.57
2022-08-26T20:12:50.574Z,9.90
2022-08-26T20:15:24.878Z,10.43
2022-08-26T20:17:56.015Z,9.90
2022-08-26T20:20:41.265Z,10.40
2022-08-26T20:23:09.316Z,9.60
2022-08-26T20:25:37.614Z,10.27
2022-08-26T20:28:05.413Z,10.80
2022-08-26T20:30:34.371Z,9.50
2022-08-26T20:33:02.061Z,10.40
2022-08-26T20:35:29.723Z,10.10
2022-08-26T20:37:57.271Z,9.13
2022-08-26T20:40:25.210Z,9.83
2022-08-26T20:42:52.765Z,10.10
2022-08-26T20:45:20.411Z,10.10
2022-08-26T20:47:49.307Z,10.03
2022-08-26T20:50:16.882Z,10.70
2022-08-26T20:52:44.589Z,9.67
2022-08-26T20:55:12.914Z,9.37
2022-08-26T20:57:43.162Z,11.30
2022-08-26T21:00:14.129Z,10.80
2022-08-26T21:02:42.787Z,10.20
2022-08-26T21:05:11.946Z,10.20
2022-08-26T21:07:39.600Z,9.93
2022-08-26T21:10:07.762Z,11.13
2022-08-26T21:12:36.024Z,11.20
2022-08-26T21:15:03.988Z,11.33
2022-08-26T21:17:31.810Z,10.80
2022-08-26T21:19:59.526Z,10.70
2022-08-26T21:22:29.995Z,11.60
2022-08-26T21:24:57.539Z,10.90
2022-08-26T21:27:26.403Z,11.77
2022-08-26T21:29:54.458Z,10.53
2022-08-26T21:32:22.009Z,10.93
2022-08-26T21:34:49.557Z,10.30
2022-08-26T21:37:17.168Z,10.40
2022-08-26T21:39:46.115Z,11.27
2022-08-26T21:42:13.669Z,12.33
2022-08-26T21:44:41.219Z,12.33
2022-08-26T21:47:08.823Z,10.60
2022-08-26T21:49:36.470Z,11.33
2022-08-26T21:52:05.044Z,11.17
2022-08-26T21:54:32.688Z,11.00
2022-08-26T21:57:01.710Z,13.73
2022-08-26T21:59:29.335Z,11.10
2022-08-26T22:01:57.375Z,11.83
2022-08-26T22:04:24.985Z,11.90
2022-08-26T22:06:54.396Z,12.97
2022-08-26T22:09:24.541Z,13.40
2022-08-26T22:11:53.302Z,13.53
2022-08-26T22:14:25.374Z,12.03
2022-08-26T22:16:55.271Z,11.30
2022-08-26T22:19:23.655Z,11.20
2022-08-26T22:21:53.574Z,13.47
2022-08-26T22:24:22.996Z,12.93
2022-08-26T22:26:50.865Z,12.00
2022-08-26T22:29:18.806Z,12.90
2022-08-26T22:31:48.035Z,13.60
2022-08-26T22:34:19.521Z,14.00
2022-08-26T22:36:49.674Z,12.63
2022-08-26T22:39:21.877Z,13.30
2022-08-26T22:41:50.725Z,12.30
2022-08-26T22:44:20.549Z,13.70
2022-08-26T22:46:51.126Z,12.50
2022-08-26T22:49:19.657Z,13.87
2022-08-26T22:51:47.792Z,13.27
2022-08-26T22:54:16.445Z,14.00
2022-08-26T22:56:46.632Z,14.83
2022-08-26T22:59:16.080Z,13.03
2022-08-26T23:01:46.238Z,14.77
2022-08-26T23:04:15.561Z,14.03
2022-08-26T23:06:47.585Z,13.87
2022-08-26T23:09:17.914Z,14.30
2022-08-26T23:11:46.250Z,15.87
2022-08-26T23:14:14.101Z,16.13
2022-08-26T23:16:42.395Z,16.10
2022-08-26T23:19:11.903Z,17.70
2022-08-26T23:21:41.661Z,17.70
2022-08-26T23:24:10.114Z,16.50
2022-08-26T23:26:38.790Z,16.80
2022-08-26T23:29:07.883Z,15.60
2022-08-26T23:31:35.783Z,16.93
2022-08-26T23:34:21.050Z,17.63
2022-08-26T23:36:50.343Z,15.37
2022-08-26T23:39:21.626Z,16.20
2022-08-26T23:41:49.467Z,16.73
2022-08-26T23:44:17.103Z,17.03
2022-08-26T23:46:44.798Z,16.30
2022-08-26T23:49:12.440Z,17.50
2022-08-26T23:52:00.731Z,17.40
2022-08-26T23:54:29.684Z,16.97
2022-08-26T23:56:57.238Z,17.70
2022-08-26T23:59:24.895Z,18.90
